Local Weather
17097
page-template-default,page,page-id-17097,bridge-core-1.0.4,ajax_fade,page_not_loaded,,hide_top_bar_on_mobile_header,qode-child-theme-ver-1.0.0,qode-theme-ver-18.0.9,qode-theme-bridge,qode_header_in_grid,wpb-js-composer js-comp-ver-4.11.2.1,vc_responsive
 

LOCAL WEATHER

METAR & TAF for EGTK Oxford

Available data for EGTK from the past hour
OXFORD
Metar
EGTK 031350Z 32011KT 270V350 CAVOK 20/07 Q1016

13:50 UTC

Wind: 320° 11kt

Visibility:

Sky:

Temp: 20 deg C / 68 deg F

Dewpoint: 7 deg C / 44.6 deg F

Pressure: 1016 hPa

TAF
TAF EGTK 031100Z 0312/0320 32009KT 9999 SCT045 PROB30 TEMPO 0312/0317 8000 SHRA